Time;durP1;ratioP1;P1;durP2;ratioP2;P2;SDS_P1;SDS_P2;PMS_P1;PMS_P2;Temp;Humidity;BMP_temperature;BMP_pressure;BME280_temperature;BME280_humidity;BME280_pressure;Samples;Min_cycle;Max_cycle;Signal;HPM_P1;HPM_P2
2023/03/15 00:01:07;;;;;;;2.30;1.00;;;;;;;0.89;100.00;95645.03;5037010;28;21016;-88
2023/03/15 00:03:40;;;;;;;4.97;1.30;;;;;;;0.85;100.00;95667.72;5048801;28;20033;-88
2023/03/15 00:06:06;;;;;;;4.35;1.60;;;;;;;0.93;100.00;95678.31;5049938;28;20483;-88
2023/03/15 00:08:32;;;;;;;4.03;1.93;;;;;;;0.83;100.00;95685.13;5050814;28;20064;-87
2023/03/15 00:10:59;;;;;;;4.77;1.80;;;;;;;0.76;100.00;95686.50;5032627;28;20044;-87
2023/03/15 00:13:28;;;;;;;4.90;1.63;;;;;;;0.58;100.00;95693.88;5030580;28;20033;-88
2023/03/15 00:15:57;;;;;;;2.90;1.50;;;;;;;0.53;100.00;95695.94;5038500;28;21105;-88
2023/03/15 00:18:23;;;;;;;2.33;1.13;;;;;;;0.50;100.00;95696.16;5033719;28;20471;-88
2023/03/15 00:20:49;;;;;;;3.10;1.20;;;;;;;0.64;100.00;95714.13;5050221;28;20471;-88
2023/03/15 00:23:15;;;;;;;2.87;1.10;;;;;;;0.42;100.00;95716.59;5032998;28;20119;-87
2023/03/15 00:25:48;;;;;;;0.70;0.60;;;;;;;0.39;100.00;95719.41;5062377;28;20041;-87
2023/03/15 00:28:14;;;;;;;0.98;0.50;;;;;;;0.41;100.00;95720.13;5049752;28;20463;-88
2023/03/15 00:30:41;;;;;;;1.40;0.60;;;;;;;0.29;100.00;95733.91;5033573;28;20074;-87
2023/03/15 00:33:07;;;;;;;1.20;0.60;;;;;;;0.21;100.00;95734.47;5028801;28;20478;-87
2023/03/15 00:35:37;;;;;;;1.30;0.80;;;;;;;0.32;100.00;95739.69;5037106;28;20470;-87
2023/03/15 00:38:03;;;;;;;3.43;0.70;;;;;;;0.14;100.00;95739.25;5049251;28;20467;-87
2023/03/15 00:40:39;;;;;;;2.27;0.77;;;;;;;0.19;100.00;95739.75;5032803;28;21387;-87
2023/03/15 00:43:05;;;;;;;1.87;0.80;;;;;;;0.08;100.00;95741.44;5033071;28;20554;-88
2023/03/15 00:45:31;;;;;;;4.53;1.20;;;;;;;0.06;100.00;95749.28;5032700;28;20550;-87
2023/03/15 00:47:57;;;;;;;1.77;0.83;;;;;;;0.08;100.00;95757.78;5046293;28;20055;-87
2023/03/15 00:50:23;;;;;;;1.97;0.80;;;;;;;0.03;100.00;95765.00;5044859;28;20447;-87
2023/03/15 00:52:49;;;;;;;5.23;1.03;;;;;;;-0.03;100.00;95775.78;5032804;28;20037;-87
2023/03/15 00:55:17;;;;;;;3.67;1.10;;;;;;;-0.11;100.00;95780.66;5029733;28;20509;-87
2023/03/15 00:57:44;;;;;;;5.67;2.23;;;;;;;-0.09;100.00;95792.53;5049284;28;20451;-87
2023/03/15 01:00:13;;;;;;;2.00;0.70;;;;;;;0.02;100.00;95799.56;5033059;28;20466;-87
2023/03/15 01:02:40;;;;;;;3.33;0.80;;;;;;;0.00;100.00;95806.59;5032108;28;20467;-87
2023/03/15 01:05:07;;;;;;;2.83;1.10;;;;;;;0.06;100.00;95806.16;5047185;28;20482;-87
2023/03/15 01:07:33;;;;;;;3.47;0.90;;;;;;;0.00;100.00;95814.38;5032007;28;20487;-87
2023/03/15 01:10:04;;;;;;;3.23;0.97;;;;;;;-0.04;100.00;95818.06;5031546;28;20464;-86
2023/03/15 01:12:33;;;;;;;1.87;0.77;;;;;;;-0.08;100.00;95820.03;5056647;28;20455;-85
2023/03/15 01:14:59;;;;;;;2.20;0.80;;;;;;;-0.06;100.00;95832.88;5045712;28;20498;-86
2023/03/15 01:17:25;;;;;;;3.10;0.90;;;;;;;-0.09;100.00;95828.72;5029178;28;20459;-87
2023/03/15 01:19:51;;;;;;;1.23;0.67;;;;;;;-0.07;100.00;95838.94;5044784;28;20509;-88
2023/03/15 01:22:19;;;;;;;1.80;0.80;;;;;;;0.00;100.00;95847.97;5027414;28;20025;-87
2023/03/15 01:24:46;;;;;;;1.53;0.67;;;;;;;0.01;100.00;95854.78;5028906;28;21092;-86
2023/03/15 01:27:12;;;;;;;2.17;0.80;;;;;;;-0.05;100.00;95860.34;5036275;28;20537;-87
2023/03/15 01:29:38;;;;;;;1.90;1.00;;;;;;;0.13;100.00;95861.69;5055182;28;20448;-87
2023/03/15 01:32:06;;;;;;;4.60;1.10;;;;;;;0.07;100.00;95864.72;5036847;28;20451;-87
2023/03/15 01:34:32;;;;;;;4.80;0.93;;;;;;;0.11;100.00;95865.31;5039355;28;20502;-87
2023/03/15 01:36:58;;;;;;;3.70;1.43;;;;;;;0.09;100.00;95875.75;5033072;28;20533;-87
2023/03/15 01:39:30;;;;;;;2.93;1.20;;;;;;;-0.03;100.00;95871.44;5038947;28;20474;-87
2023/03/15 01:41:56;;;;;;;4.47;1.40;;;;;;;0.10;100.00;95884.34;5053228;28;20463;-86
2023/03/15 01:44:23;;;;;;;2.83;0.97;;;;;;;0.13;100.00;95884.13;5035995;28;20943;-87
2023/03/15 01:46:50;;;;;;;5.03;1.50;;;;;;;0.18;100.00;95889.84;5033449;28;20044;-87
2023/03/15 01:49:30;;;;;;;4.17;1.90;;;;;;;0.15;100.00;95888.28;5051395;28;20462;-86
2023/03/15 01:52:07;;;;;;;4.00;1.70;;;;;;;0.00;100.00;95894.50;5039396;28;20463;-86
2023/03/15 01:54:54;;;;;;;5.40;1.87;;;;;;;-0.11;100.00;95894.38;5051179;28;21098;-87
2023/03/15 01:57:29;;;;;;;4.40;1.90;;;;;;;-0.07;100.00;95899.25;5051447;28;20467;-86
2023/03/15 02:00:14;;;;;;;6.20;2.13;;;;;;;0.10;100.00;95903.28;5042996;28;20592;-87
2023/03/15 02:02:51;;;;;;;3.60;1.73;;;;;;;0.01;100.00;95896.13;5038205;28;20468;-87
2023/03/15 02:05:31;;;;;;;3.90;1.65;;;;;;;0.10;100.00;95894.69;5045791;28;20467;-87
2023/03/15 02:08:01;;;;;;;4.57;1.77;;;;;;;0.12;100.00;95901.41;5036709;28;20029;-87
2023/03/15 02:10:50;;;;;;;4.88;1.80;;;;;;;0.13;100.00;95905.63;5029209;28;20464;-87
2023/03/15 02:13:21;;;;;;;4.80;1.70;;;;;;;0.16;100.00;95907.19;5051129;28;20041;-87
2023/03/15 02:15:48;;;;;;;4.23;2.13;;;;;;;0.16;100.00;95909.78;5044209;28;20620;-87
2023/03/15 02:18:35;;;;;;;7.43;2.00;;;;;;;0.11;100.00;95917.03;5056634;28;20458;-87
2023/03/15 02:21:13;;;;;;;3.23;1.57;;;;;;;0.12;100.00;95922.09;5038294;28;20988;-86
2023/03/15 02:23:55;;;;;;;6.10;1.57;;;;;;;0.18;100.00;95920.88;5048846;28;20521;-85
2023/03/15 02:26:44;;;;;;;4.33;1.97;;;;;;;0.23;100.00;95922.22;5034244;28;20480;-86
2023/03/15 02:29:10;;;;;;;3.37;1.90;;;;;;;0.23;100.00;95913.59;5056866;28;21075;-86
2023/03/15 02:31:36;;;;;;;5.00;2.50;;;;;;;0.21;100.00;95924.06;5034763;28;20821;-86
2023/03/15 02:34:06;;;;;;;5.53;2.43;;;;;;;0.22;100.00;95927.47;5048690;28;20456;-85
2023/03/15 02:36:33;;;;;;;6.77;3.23;;;;;;;0.23;100.00;95926.53;5039385;28;20064;-87
2023/03/15 02:39:00;;;;;;;7.40;3.47;;;;;;;0.31;100.00;95941.56;5038164;28;20546;-86
2023/03/15 02:41:32;;;;;;;5.13;2.70;;;;;;;0.36;100.00;95955.00;5044651;28;20459;-86
2023/03/15 02:44:25;;;;;;;6.22;3.60;;;;;;;0.42;100.00;95945.06;5034934;28;20781;-86
2023/03/15 02:46:53;;;;;;;5.73;2.63;;;;;;;0.39;100.00;95960.78;5029561;28;20037;-87
2023/03/15 02:49:30;;;;;;;5.33;3.07;;;;;;;0.40;100.00;95964.19;5035157;28;20508;-86
2023/03/15 02:51:56;;;;;;;4.87;2.63;;;;;;;0.31;100.00;95959.66;5043750;28;20548;-87
2023/03/15 02:54:21;;;;;;;8.83;3.43;;;;;;;0.37;100.00;95974.75;5042818;28;20554;-86
2023/03/15 02:56:47;;;;;;;7.40;2.83;;;;;;;0.33;100.00;95970.72;5037274;28;20410;-86
2023/03/15 02:59:13;;;;;;;5.83;3.07;;;;;;;0.26;100.00;95975.47;5067323;28;20090;-85
2023/03/15 03:01:39;;;;;;;6.90;2.80;;;;;;;0.35;100.00;95976.63;5044483;28;20037;-87
2023/03/15 03:04:27;;;;;;;7.97;3.27;;;;;;;0.41;100.00;95978.81;5031170;28;20025;-87
2023/03/15 03:06:53;;;;;;;10.63;3.50;;;;;;;0.30;100.00;95978.69;5032406;28;20628;-87
2023/03/15 03:09:23;;;;;;;8.40;4.27;;;;;;;0.24;100.00;95977.34;5046672;28;20463;-87
2023/03/15 03:11:48;;;;;;;10.57;5.03;;;;;;;0.40;100.00;95974.53;5037129;28;20999;-87
2023/03/15 03:14:33;;;;;;;8.97;4.90;;;;;;;0.29;100.00;95980.44;5037128;28;20474;-85
2023/03/15 03:16:58;;;;;;;12.67;5.47;;;;;;;0.26;100.00;95982.41;5035777;28;20021;-86
2023/03/15 03:19:24;;;;;;;12.83;6.00;;;;;;;0.41;100.00;95991.75;5036856;28;20498;-87
2023/03/15 03:22:00;;;;;;;13.20;6.93;;;;;;;0.53;100.00;95996.06;5033494;28;20033;-86
2023/03/15 03:24:25;;;;;;;13.87;6.30;;;;;;;0.41;100.00;95996.91;5033140;28;20558;-86
2023/03/15 03:27:06;;;;;;;14.17;6.40;;;;;;;0.51;100.00;96008.28;5036017;28;20479;-86
2023/03/15 03:29:35;;;;;;;13.30;6.03;;;;;;;0.49;100.00;96009.31;5036298;28;20463;-87
2023/03/15 03:32:03;;;;;;;17.80;6.57;;;;;;;0.55;100.00;96019.25;5037806;28;20443;-86
2023/03/15 03:34:30;;;;;;;14.03;6.47;;;;;;;0.55;100.00;96030.44;5042647;28;20459;-87
2023/03/15 03:36:56;;;;;;;11.87;5.70;;;;;;;0.57;100.00;96036.34;5036678;28;20823;-87
2023/03/15 03:39:38;;;;;;;10.87;6.13;;;;;;;0.49;100.00;96046.38;5057510;28;20497;-87
2023/03/15 03:42:04;;;;;;;10.67;6.47;;;;;;;0.62;100.00;96054.97;5035330;28;21020;-87
2023/03/15 03:44:30;;;;;;;12.53;6.10;;;;;;;0.45;100.00;96055.28;5041887;28;20025;-86
2023/03/15 03:46:55;;;;;;;21.00;7.13;;;;;;;0.41;100.00;96069.34;5068380;28;20486;-87
2023/03/15 03:49:21;;;;;;;12.77;6.80;;;;;;;0.42;100.00;96064.06;5051017;28;20063;-87
2023/03/15 03:51:47;;;;;;;11.37;6.43;;;;;;;0.47;100.00;96066.34;5049567;28;20048;-87
2023/03/15 03:54:28;;;;;;;10.63;6.27;;;;;;;0.43;100.00;96077.81;5035656;28;20407;-87
2023/03/15 03:56:54;;;;;;;12.97;7.10;;;;;;;0.39;100.00;96084.13;5038198;28;20025;-87
2023/03/15 03:59:22;;;;;;;16.00;6.77;;;;;;;0.38;100.00;96082.47;5035950;28;20467;-87
2023/03/15 04:01:54;;;;;;;15.00;6.43;;;;;;;0.37;100.00;96093.72;5046589;28;20475;-86
2023/03/15 04:04:20;;;;;;;12.40;6.67;;;;;;;0.26;100.00;96091.03;5051177;28;20466;-87
2023/03/15 04:06:46;;;;;;;13.40;7.33;;;;;;;0.37;100.00;96101.50;5033996;28;20029;-87
2023/03/15 04:09:23;;;;;;;17.13;6.73;;;;;;;0.40;100.00;96101.28;5031963;28;20048;-86
2023/03/15 04:11:50;;;;;;;12.90;7.20;;;;;;;0.41;100.00;96095.22;5049533;28;21255;-86
2023/03/15 04:14:17;;;;;;;11.27;6.83;;;;;;;0.31;100.00;96100.16;5032791;28;20459;-87
2023/03/15 04:16:45;;;;;;;16.37;7.13;;;;;;;0.29;100.00;96107.16;5047959;28;21952;-87
2023/03/15 04:19:14;;;;;;;16.33;7.07;;;;;;;0.19;100.00;96106.94;5033857;28;20597;-86
2023/03/15 04:21:46;;;;;;;15.43;7.17;;;;;;;0.19;100.00;96122.44;5053046;28;20554;-86
2023/03/15 04:24:28;;;;;;;17.60;8.57;;;;;;;0.23;100.00;96116.19;5027304;28;20087;-86
2023/03/15 04:27:58;;;;;;;14.53;7.57;;;;;;;0.13;100.00;96119.44;5008451;28;20477;-86
2023/03/15 04:30:43;;;;;;;15.03;8.47;;;;;;;0.27;100.00;96119.41;5045305;28;20454;-86
2023/03/15 04:33:23;;;;;;;22.70;10.57;;;;;;;0.43;100.00;96129.56;5038730;28;20471;-86
2023/03/15 04:36:17;;;;;;;16.70;8.03;;;;;;;0.23;100.00;96130.84;5032948;28;20471;-86
2023/03/15 04:39:19;;;;;;;16.93;8.37;;;;;;;0.21;100.00;96140.47;5046084;28;20524;-87
2023/03/15 04:41:44;;;;;;;16.42;8.65;;;;;;;0.27;100.00;96150.44;5053079;28;20459;-87
2023/03/15 04:44:25;;;;;;;20.77;9.00;;;;;;;0.16;100.00;96152.84;5043772;28;20398;-86
2023/03/15 04:47:07;;;;;;;16.00;8.53;;;;;;;0.26;100.00;96156.50;5044164;28;20906;-87
2023/03/15 04:49:55;;;;;;;14.98;7.30;;;;;;;0.23;100.00;96154.97;5035336;28;21027;-86
2023/03/15 04:52:33;;;;;;;16.10;7.17;;;;;;;0.19;100.00;96153.47;5046649;28;20398;-87
2023/03/15 04:55:27;;;;;;;19.27;7.90;;;;;;;0.38;100.00;96152.31;5021617;28;20505;-86
2023/03/15 04:58:25;;;;;;;14.65;6.65;;;;;;;0.21;100.00;96156.81;5024702;28;20467;-86
2023/03/15 05:01:29;;;;;;;12.43;6.97;;;;;;;0.27;100.00;96160.78;5030433;28;20100;-85
2023/03/15 05:04:12;;;;;;;11.85;7.15;;;;;;;0.31;100.00;96156.22;5028643;28;20509;-86
2023/03/15 05:06:58;;;;;;;18.37;7.37;;;;;;;0.57;100.00;96155.38;5049100;28;20048;-86
2023/03/15 05:09:47;;;;;;;15.07;6.67;;;;;;;0.31;100.00;96156.22;5021435;28;20479;-86
2023/03/15 05:12:29;;;;;;;14.77;6.57;;;;;;;0.27;100.00;96160.78;5045407;28;20502;-87
2023/03/15 05:15:13;;;;;;;12.50;6.63;;;;;;;0.32;100.00;96157.88;5036191;28;20471;-87
2023/03/15 05:18:02;;;;;;;11.47;5.90;;;;;;;0.26;100.00;96166.03;5049254;28;20541;-87
2023/03/15 05:20:59;;;;;;;14.37;5.77;;;;;;;0.22;100.00;96168.81;5036641;28;20489;-87
2023/03/15 05:24:00;;;;;;;12.10;6.70;;;;;;;0.34;100.00;96166.38;5015656;28;20464;-85
2023/03/15 05:26:48;;;;;;;9.77;5.23;;;;;;;0.11;100.00;96160.09;5016347;28;20533;-87
2023/03/15 05:29:44;;;;;;;12.37;5.43;;;;;;;0.50;100.00;96164.44;5042914;28;20884;-86
2023/03/15 05:32:48;;;;;;;14.77;5.37;;;;;;;0.39;100.00;96165.13;5028219;28;20452;-86
2023/03/15 05:35:34;;;;;;;13.03;5.83;;;;;;;0.49;100.00;96173.16;5043459;28;20539;-86
2023/03/15 05:38:48;;;;;;;19.60;7.13;;;;;;;0.49;100.00;96169.72;5049112;28;20485;-86
2023/03/15 05:41:41;;;;;;;10.70;5.10;;;;;;;0.55;100.00;96172.75;5048129;28;20458;-86
2023/03/15 05:44:28;;;;;;;11.07;5.50;;;;;;;0.53;100.00;96173.78;5036404;28;20537;-88
2023/03/15 05:47:16;;;;;;;11.90;4.83;;;;;;;0.58;100.00;96182.91;5041218;28;21047;-87
2023/03/15 05:50:22;;;;;;;13.03;4.73;;;;;;;0.69;100.00;96187.38;5048738;28;20430;-86
2023/03/15 05:53:07;;;;;;;9.70;4.73;;;;;;;0.46;100.00;96183.69;5057344;28;20479;-86
2023/03/15 05:55:55;;;;;;;15.90;5.17;;;;;;;0.31;100.00;96188.09;5045665;28;20470;-87
2023/03/15 05:58:27;;;;;;;8.27;4.37;;;;;;;0.39;100.00;96195.34;5050711;28;20455;-86
2023/03/15 06:01:19;;;;;;;11.33;4.43;;;;;;;0.45;100.00;96188.03;5057075;28;20479;-87
2023/03/15 06:04:02;;;;;;;10.48;4.88;;;;;;;0.73;100.00;96188.00;5055015;28;20487;-88
2023/03/15 06:06:30;;;;;;;12.17;4.80;;;;;;;0.81;100.00;96188.34;5034724;28;20040;-88
2023/03/15 06:08:56;;;;;;;11.73;5.27;;;;;;;0.88;100.00;96184.44;5032855;28;20491;-88
2023/03/15 06:11:27;;;;;;;11.43;3.97;;;;;;;0.85;100.00;96188.03;5059511;28;20097;-87
2023/03/15 06:13:52;;;;;;;10.63;4.80;;;;;;;1.13;100.00;96194.78;5038817;28;20229;-88
2023/03/15 06:16:31;;;;;;;11.97;5.93;;;;;;;1.88;100.00;96189.69;5053494;28;20455;-87
2023/03/15 06:18:59;;;;;;;11.80;5.70;;;;;;;2.47;100.00;96181.19;5072500;28;20455;-87
2023/03/15 06:21:25;;;;;;;9.90;4.60;;;;;;;2.97;100.00;96176.66;5074899;28;20443;-88
2023/03/15 06:23:57;;;;;;;9.37;4.53;;;;;;;3.56;100.00;96170.50;5069426;28;20055;-88
2023/03/15 06:26:23;;;;;;;7.87;3.83;;;;;;;3.46;100.00;96172.16;5048842;28;20035;-86
2023/03/15 06:28:54;;;;;;;10.33;4.00;;;;;;;3.80;100.00;96167.78;5033170;28;20475;-88
2023/03/15 06:31:19;;;;;;;9.23;3.70;;;;;;;4.39;100.00;96158.78;5049797;28;20467;-87
2023/03/15 06:33:51;;;;;;;11.07;3.70;;;;;;;4.22;100.00;96157.53;5047483;28;20055;-88
2023/03/15 06:36:25;;;;;;;5.90;2.63;;;;;;;4.21;100.00;96166.28;5035506;28;20059;-88
2023/03/15 06:38:54;;;;;;;6.00;2.38;;;;;;;4.58;100.00;96163.34;5042827;28;20061;-87
2023/03/15 06:41:20;;;;;;;8.33;3.37;;;;;;;4.11;100.00;96161.00;5035641;28;20098;-88
2023/03/15 06:43:49;;;;;;;12.10;3.23;;;;;;;3.63;100.00;96178.66;5036317;28;20140;-87
2023/03/15 06:46:17;;;;;;;11.33;4.20;;;;;;;3.70;100.00;96178.06;5050892;28;20109;-88
2023/03/15 06:48:43;;;;;;;10.37;4.20;;;;;;;3.76;100.00;96182.78;5048353;28;20025;-88
2023/03/15 06:51:13;;;;;;;10.40;4.47;;;;;;;3.34;100.00;96197.28;5058859;28;20060;-88
2023/03/15 06:53:52;;;;;;;10.50;4.60;;;;;;;3.19;100.00;96194.06;5055537;28;20033;-87
2023/03/15 06:56:22;;;;;;;14.73;4.77;;;;;;;3.65;100.00;96197.56;5031667;28;20044;-87
2023/03/15 06:58:48;;;;;;;9.70;3.77;;;;;;;4.20;100.00;96204.50;5037133;28;20033;-88
2023/03/15 07:01:14;;;;;;;11.60;4.20;;;;;;;4.37;100.00;96191.94;5051419;28;20033;-88
2023/03/15 07:03:41;;;;;;;10.43;4.20;;;;;;;4.66;100.00;96202.63;5034489;28;20033;-87
2023/03/15 07:06:09;;;;;;;12.17;4.30;;;;;;;4.68;100.00;96196.34;5035567;28;20414;-87
2023/03/15 07:08:35;;;;;;;12.40;4.13;;;;;;;4.79;100.00;96202.47;5051620;28;20636;-87
2023/03/15 07:11:02;;;;;;;10.07;4.57;;;;;;;4.40;100.00;96196.91;5051967;28;20025;-87
2023/03/15 07:13:27;;;;;;;11.57;3.93;;;;;;;4.79;100.00;96192.84;5034202;28;20029;-87
2023/03/15 07:15:55;;;;;;;11.00;3.33;;;;;;;5.07;100.00;96193.22;5035560;28;20510;-87
2023/03/15 07:18:30;;;;;;;11.47;3.10;;;;;;;4.46;100.00;96191.19;5032306;28;20033;-87
2023/03/15 07:21:04;;;;;;;7.10;3.30;;;;;;;4.97;100.00;96196.59;5052135;28;20037;-87
2023/03/15 07:23:30;;;;;;;;;;;;;;;4.89;100.00;96204.19;5027984;28;20040;-87
2023/03/15 07:26:02;;;;;;;6.43;2.93;;;;;;;4.87;100.00;96200.91;5038682;28;20313;-87
2023/03/15 07:28:33;;;;;;;7.37;3.23;;;;;;;5.39;100.00;96201.78;5051246;28;20391;-86
2023/03/15 07:31:01;;;;;;;6.60;2.53;;;;;;;4.90;100.00;96198.03;5054954;28;20482;-86
2023/03/15 07:33:29;;;;;;;8.97;3.10;;;;;;;4.95;100.00;96198.47;5051249;28;20044;-86
2023/03/15 07:35:55;;;;;;;9.17;2.80;;;;;;;5.13;100.00;96200.53;5034424;28;20126;-86
2023/03/15 07:38:23;;;;;;;9.33;2.80;;;;;;;5.87;100.00;96196.03;5033323;28;20021;-87
2023/03/15 07:40:49;;;;;;;6.93;2.37;;;;;;;6.75;100.00;96199.72;5041035;28;20037;-86
2023/03/15 07:43:15;;;;;;;9.13;2.63;;;;;;;6.09;100.00;96207.25;5032875;28;20037;-86
2023/03/15 07:45:41;;;;;;;10.33;4.20;;;;;;;5.70;100.00;96214.91;5061335;28;20036;-86
2023/03/15 07:48:10;;;;;;;11.70;3.03;;;;;;;5.67;100.00;96215.16;5033512;28;20032;-86
2023/03/15 07:50:36;;;;;;;10.33;2.23;;;;;;;5.76;100.00;96214.34;5049679;28;20033;-87
2023/03/15 07:53:03;;;;;;;9.10;2.70;;;;;;;6.45;100.00;96208.47;5056207;28;20033;-86
2023/03/15 07:55:33;;;;;;;8.53;2.50;;;;;;;6.06;100.00;96207.50;5041899;28;20037;-86
2023/03/15 07:57:59;;;;;;;8.00;2.17;;;;;;;6.02;100.00;96208.75;5031123;28;20048;-85
2023/03/15 08:00:25;;;;;;;15.20;2.93;;;;;;;5.93;100.00;96205.13;5033674;28;20029;-86
2023/03/15 08:02:51;;;;;;;8.33;2.50;;;;;;;6.14;100.00;96212.91;5049914;28;20043;-86
2023/03/15 08:05:25;;;;;;;11.97;2.57;;;;;;;6.31;100.00;96209.66;5038092;28;20036;-86
2023/03/15 08:07:50;;;;;;;9.00;2.10;;;;;;;6.78;100.00;96204.66;5034354;28;20492;-86
2023/03/15 08:10:35;;;;;;;5.67;1.80;;;;;;;6.94;100.00;96206.75;5051026;28;20024;-87
2023/03/15 08:13:00;;;;;;;10.73;3.53;;;;;;;6.89;100.00;96208.09;5053330;28;20036;-86
2023/03/15 08:15:26;;;;;;;8.60;2.57;;;;;;;7.32;100.00;96208.50;5059890;28;20037;-86
2023/03/15 08:17:52;;;;;;;8.23;2.70;;;;;;;6.99;100.00;96214.16;5066966;28;20124;-87
2023/03/15 08:20:21;;;;;;;8.57;2.93;;;;;;;7.18;100.00;96213.34;5033696;28;20119;-87
2023/03/15 08:22:53;;;;;;;7.03;2.20;;;;;;;7.12;100.00;96219.94;5038401;28;20403;-86
2023/03/15 08:25:30;;;;;;;7.50;3.53;;;;;;;6.66;100.00;96224.03;5031936;28;20064;-87
2023/03/15 08:27:56;;;;;;;5.77;2.33;;;;;;;7.33;100.00;96219.78;5051329;28;20059;-87
2023/03/15 08:30:27;;;;;;;7.77;2.90;;;;;;;7.63;100.00;96213.53;5052667;28;20025;-87
2023/03/15 08:32:53;;;;;;;9.50;2.67;;;;;;;7.81;100.00;96218.84;5035505;28;20037;-88
2023/03/15 08:35:21;;;;;;;8.33;3.00;;;;;;;7.80;100.00;96231.13;5032939;28;20033;-87
2023/03/15 08:37:51;;;;;;;8.17;2.10;;;;;;;7.93;100.00;96230.00;5032779;28;20075;-87
2023/03/15 08:40:25;;;;;;;8.97;2.40;;;;;;;8.06;100.00;96220.03;5048544;28;20040;-87
2023/03/15 08:42:52;;;;;;;8.97;2.13;;;;;;;7.66;100.00;96228.97;5033214;28;20036;-86
2023/03/15 08:45:18;;;;;;;12.63;2.40;;;;;;;7.88;100.00;96229.59;5033141;28;20032;-87
2023/03/15 08:47:44;;;;;;;8.47;2.40;;;;;;;8.04;100.00;96227.19;5032680;28;20041;-87
2023/03/15 08:50:12;;;;;;;7.77;2.87;;;;;;;8.83;100.00;96225.84;5049266;28;20051;-87
2023/03/15 08:52:38;;;;;;;5.57;1.90;;;;;;;8.16;100.00;96226.03;5032003;28;20033;-87
2023/03/15 08:55:05;;;;;;;10.00;2.80;;;;;;;8.29;100.00;96222.28;5049212;28;20064;-87
2023/03/15 08:57:34;;;;;;;8.10;2.30;;;;;;;8.27;100.00;96210.13;5048372;28;20033;-86
2023/03/15 09:00:19;;;;;;;11.77;2.77;;;;;;;8.74;100.00;96231.00;5032918;28;20116;-88
2023/03/15 09:02:50;;;;;;;7.40;2.60;;;;;;;9.11;100.00;96232.69;5050468;28;20029;-88
2023/03/15 09:05:24;;;;;;;5.67;1.80;;;;;;;8.97;100.00;96235.81;5026143;28;20091;-88
2023/03/15 09:07:54;;;;;;;10.03;2.43;;;;;;;8.29;100.00;96240.63;5033567;28;20106;-86
2023/03/15 09:10:21;;;;;;;8.03;2.00;;;;;;;8.93;100.00;96239.72;5033045;28;20433;-85
2023/03/15 09:12:49;;;;;;;9.70;2.27;;;;;;;9.25;100.00;96238.38;5031108;28;20044;-85
2023/03/15 09:15:23;;;;;;;6.83;3.07;;;;;;;9.44;100.00;96246.09;5047847;28;20037;-85
2023/03/15 09:17:50;;;;;;;8.17;2.37;;;;;;;9.27;100.00;96249.56;5047503;28;20033;-85
2023/03/15 09:20:17;;;;;;;7.60;2.20;;;;;;;9.19;100.00;96251.13;5047578;28;20033;-85
2023/03/15 09:22:52;;;;;;;6.00;2.23;;;;;;;10.43;100.00;96251.00;5048691;28;20040;-85
2023/03/15 09:25:18;;;;;;;6.23;1.67;;;;;;;9.98;100.00;96251.22;5048928;28;20430;-85
2023/03/15 09:27:44;;;;;;;9.67;2.10;;;;;;;10.09;100.00;96253.56;5030920;28;20033;-85
2023/03/15 09:30:10;;;;;;;8.17;2.00;;;;;;;10.36;100.00;96249.97;5042162;28;20040;-86
2023/03/15 09:32:42;;;;;;;11.30;2.10;;;;;;;9.07;100.00;96252.31;5053148;28;20380;-85
2023/03/15 09:35:12;;;;;;;5.53;1.87;;;;;;;10.19;100.00;96258.72;5031105;28;20045;-85
2023/03/15 09:37:38;;;;;;;7.30;1.90;;;;;;;9.00;100.00;96261.75;5032366;28;20067;-86
2023/03/15 09:40:06;;;;;;;6.77;1.67;;;;;;;7.56;100.00;96257.75;5049475;28;20025;-86
2023/03/15 09:43:04;;;;;;;8.20;1.60;;;;;;;7.70;100.00;96264.34;5033409;28;20040;-83
2023/03/15 09:45:40;;;;;;;7.47;1.60;;;;;;;8.55;100.00;96259.97;5040368;28;20505;-83
2023/03/15 09:48:24;;;;;;;6.93;1.63;;;;;;;9.36;100.00;96252.09;5032971;28;20613;-83
2023/03/15 09:50:56;;;;;;;;;;;;;;;10.90;100.00;96252.28;5038349;28;20029;-86
2023/03/15 09:54:04;;;;;;;5.20;1.37;;;;;;;10.57;100.00;96258.28;5052359;28;19962;-86
2023/03/15 09:56:35;;;;;;;5.70;1.77;;;;;;;10.01;100.00;96256.16;4968373;28;20039;-86
2023/03/15 09:59:12;;;;;;;5.40;1.40;;;;;;;10.09;100.00;96264.94;4991300;28;20496;-86
2023/03/15 10:01:40;;;;;;;5.27;1.50;;;;;;;9.15;100.00;96257.66;5036302;28;20080;-86
2023/03/15 10:04:30;;;;;;;6.40;1.23;;;;;;;10.19;100.00;96261.34;5052660;28;20074;-86
2023/03/15 10:06:58;;;;;;;7.13;1.63;;;;;;;9.09;100.00;96255.63;5040385;28;20028;-86
2023/03/15 10:09:28;;;;;;;6.77;1.77;;;;;;;8.79;100.00;96263.84;5040281;28;20132;-86
2023/03/15 10:12:04;;;;;;;5.13;1.67;;;;;;;7.67;100.00;96261.19;5032411;28;20466;-83
2023/03/15 10:14:54;;;;;;;5.83;1.73;;;;;;;7.67;100.00;96267.25;5045691;28;20128;-83
2023/03/15 10:17:58;;;;;;;7.57;1.67;;;;;;;8.17;100.00;96261.75;5046867;28;20029;-82
2023/03/15 10:20:28;;;;;;;8.45;2.30;;;;;;;7.24;100.00;96268.53;5049751;28;20033;-86
2023/03/15 10:23:02;;;;;;;7.70;2.13;;;;;;;6.61;100.00;96276.72;5056787;28;20569;-87
2023/03/15 10:25:29;;;;;;;7.47;1.90;;;;;;;6.93;100.00;96262.59;5046154;28;20044;-87
2023/03/15 10:27:58;;;;;;;8.80;3.67;;;;;;;6.46;100.00;96277.19;5053454;28;20041;-87
2023/03/15 10:30:28;;;;;;;7.40;1.60;;;;;;;6.80;100.00;96272.47;5033464;28;20033;-87
2023/03/15 10:33:01;;;;;;;4.93;1.20;;;;;;;7.48;100.00;96267.28;5051938;28;20120;-88
2023/03/15 10:35:32;;;;;;;5.30;1.67;;;;;;;8.08;100.00;96265.25;5039156;28;20041;-86
2023/03/15 10:38:01;;;;;;;6.47;1.57;;;;;;;8.35;100.00;96260.97;5036895;28;20479;-88
2023/03/15 10:40:46;;;;;;;9.83;1.43;;;;;;;8.25;100.00;96256.63;5048449;28;20040;-87
2023/03/15 10:43:24;;;;;;;5.00;1.23;;;;;;;8.90;100.00;96255.75;5043369;28;20033;-89
2023/03/15 10:46:10;;;;;;;4.80;1.60;;;;;;;8.17;100.00;96255.69;5052549;28;20393;-88
2023/03/15 10:48:58;;;;;;;6.17;1.50;;;;;;;7.60;100.00;96257.47;5034696;28;20029;-87
2023/03/15 10:51:42;;;;;;;4.97;1.20;;;;;;;6.97;100.00;96258.72;5036060;28;20116;-87
2023/03/15 10:54:20;;;;;;;6.63;1.33;;;;;;;6.46;100.00;96261.53;5033118;28;20517;-87
2023/03/15 10:57:18;;;;;;;10.17;1.33;;;;;;;6.34;100.00;96263.44;5035694;28;20037;-89
2023/03/15 11:00:17;;;;;;;6.53;1.57;;;;;;;6.66;100.00;96267.63;5047041;28;20037;-90
2023/03/15 11:02:51;;;;;;;7.53;1.10;;;;;;;6.34;100.00;96266.88;5053337;28;20033;-90
2023/03/15 11:05:18;;;;;;;7.77;1.40;;;;;;;6.96;100.00;96251.03;5042926;28;20119;-90
2023/03/15 11:07:59;;;;;;;5.33;1.20;;;;;;;7.12;100.00;96251.31;5044175;28;20079;-90
2023/03/15 11:10:33;;;;;;;6.43;1.40;;;;;;;7.10;100.00;96248.00;5046241;28;20372;-90
2023/03/15 11:13:16;;;;;;;6.50;1.77;;;;;;;7.67;100.00;96242.88;5050420;28;20045;-90
2023/03/15 11:15:53;;;;;;;5.07;1.77;;;;;;;7.17;100.00;96243.88;5053987;28;20135;-90
2023/03/15 11:18:26;;;;;;;8.20;2.30;;;;;;;7.74;100.00;96247.38;5040089;28;20082;-91
2023/03/15 11:20:56;;;;;;;6.27;1.47;;;;;;;8.34;100.00;96233.13;5037477;28;20050;-90
2023/03/15 11:23:27;;;;;;;6.30;1.33;;;;;;;8.36;100.00;96233.81;5035027;28;20063;-90
2023/03/15 11:25:57;;;;;;;6.23;1.67;;;;;;;8.48;100.00;96224.81;5051313;28;20041;-90
2023/03/15 11:28:31;;;;;;;7.03;1.00;;;;;;;9.09;100.00;96232.03;5036663;28;20032;-90
2023/03/15 11:31:05;;;;;;;6.03;1.70;;;;;;;8.54;100.00;96224.22;5032125;28;20826;-88
2023/03/15 11:33:40;;;;;;;6.17;1.70;;;;;;;7.98;100.00;96230.38;5053203;28;20036;-90
2023/03/15 11:36:17;;;;;;;4.67;1.30;;;;;;;7.69;100.00;96228.69;5041997;28;20032;-90
2023/03/15 11:38:47;;;;;;;6.90;1.60;;;;;;;7.66;100.00;96228.97;5032303;28;20037;-91
2023/03/15 11:44:24;;;;;;;6.07;1.43;;;;;;;6.90;100.00;96235.88;5061820;28;20040;-91
2023/03/15 11:47:20;;;;;;;5.07;1.17;;;;;;;6.72;100.00;96227.91;5058847;28;20052;-90
2023/03/15 11:49:55;;;;;;;3.83;1.27;;;;;;;6.84;100.00;96232.03;5055226;28;20041;-90
2023/03/15 11:52:24;;;;;;;8.60;2.33;;;;;;;6.67;100.00;96233.50;5049118;28;20050;-91
2023/03/15 11:54:55;;;;;;;4.20;1.10;;;;;;;6.28;100.00;96243.06;5034915;28;20053;-91
2023/03/15 11:57:43;;;;;;;8.30;1.97;;;;;;;6.38;100.00;96244.75;5042861;28;20533;-90
2023/03/15 12:00:35;;;;;;;5.43;1.23;;;;;;;6.48;100.00;96243.94;5050890;28;20037;-91
2023/03/15 12:03:24;;;;;;;5.83;1.40;;;;;;;6.42;100.00;96247.09;5035356;28;20796;-90
2023/03/15 12:06:12;;;;;;;5.67;2.40;;;;;;;6.13;100.00;96245.19;5059298;28;20029;-91